Lacy, Texas
Current Conditions -  °F | °C
As of 1:53 PM on Friday 28 Nov 2014 (Local Time) from KLFK Reporting Station
Clear Clear  
Wind Chill: 71°   Ceiling: Unl
Heat Index: 71°   Visibility: 10mi
Dew Point: 50°   Wind: 9mph
Humidity: 47%   Direction: 210°SSW
Pressure: 30.2"   Gusts: NA
Location:  31.0585°N, 95.0561°W
Report Text: KLFK 281953Z AUTO 21008KT 10SM CLR 22/10 A3020 RMK AO2 SLP223 T02170100 $
Loading
Personal Weather Stations






























Interactive Weather Map New forecast layout! Learn more

10-Day Weather Forecast

Advertisements
Track Severe Weather on mobile